Time;durP1;ratioP1;P1;durP2;ratioP2;P2;SDS_P1;SDS_P2;PMS_P1;PMS_P2;Temp;Humidity;BMP_temperature;BMP_pressure;BME280_temperature;BME280_humidity;BME280_pressure;Samples;Min_cycle;Max_cycle;Signal;HPM_P1;HPM_P2
2022/05/24 00:01:23;;;;;;;6.20;2.37;;;11.60;99.90;;;;;;4402461;28;658928;-66
2022/05/24 00:04:12;;;;;;;4.27;2.40;;;11.50;99.90;;;;;;4382726;28;660101;-66
2022/05/24 00:06:59;;;;;;;6.53;2.40;;;11.50;99.90;;;;;;4400131;28;658188;-66
2022/05/24 00:09:46;;;;;;;5.23;2.53;;;11.50;99.90;;;;;;4378054;28;658855;-66
2022/05/24 00:12:33;;;;;;;4.67;2.40;;;11.50;99.90;;;;;;4399195;28;658886;-66
2022/05/24 00:15:23;;;;;;;4.47;2.40;;;11.60;99.90;;;;;;4383363;28;658438;-66
2022/05/24 00:18:12;;;;;;;3.80;2.30;;;11.50;99.90;;;;;;4385110;28;660003;-66
2022/05/24 00:21:02;;;;;;;4.37;2.43;;;11.60;99.90;;;;;;4397395;28;660431;-66
2022/05/24 00:23:49;;;;;;;4.10;2.50;;;11.60;99.90;;;;;;4397015;28;658650;-66
2022/05/24 00:26:37;;;;;;;5.07;2.50;;;11.60;99.90;;;;;;4375333;28;660038;-66
2022/05/24 00:29:24;;;;;;;5.30;2.43;;;11.50;99.90;;;;;;4396801;28;658106;-67
2022/05/24 00:32:11;;;;;;;4.40;2.50;;;11.50;99.90;;;;;;4378514;28;658841;-66
2022/05/24 00:34:58;;;;;;;5.67;2.40;;;11.50;99.90;;;;;;4398479;28;659110;-66
2022/05/24 00:37:47;;;;;;;4.37;2.30;;;11.50;99.90;;;;;;4378958;28;658685;-66
2022/05/24 00:40:39;;;;;;;7.00;2.25;;;11.50;99.90;;;;;;4396727;28;658729;-67
2022/05/24 00:43:29;;;;;;;4.43;2.80;;;11.50;99.90;;;;;;4380871;28;658650;-67
2022/05/24 00:46:18;;;;;;;4.27;2.57;;;11.50;99.90;;;;;;4381678;28;658209;-66
2022/05/24 00:49:06;;;;;;;3.33;2.30;;;11.50;99.90;;;;;;4388599;28;658339;-66
2022/05/24 00:51:56;;;;;;;3.57;2.53;;;11.60;99.90;;;;;;4397691;28;659368;-66
2022/05/24 00:54:45;;;;;;;9.97;2.53;;;11.60;99.90;;;;;;4372238;28;659199;-66
2022/05/24 00:57:34;;;;;;;4.23;2.40;;;11.60;99.90;;;;;;4372514;28;659402;-67
2022/05/24 01:00:22;;;;;;;4.33;2.43;;;11.50;99.90;;;;;;4376717;28;658415;-66
2022/05/24 01:03:09;;;;;;;4.10;2.63;;;11.40;99.90;;;;;;4398881;28;658808;-66
2022/05/24 01:05:57;;;;;;;3.70;2.43;;;11.40;99.90;;;;;;4378384;28;658871;-66
2022/05/24 01:08:44;;;;;;;4.57;2.90;;;11.40;99.90;;;;;;4396301;28;658180;-66
2022/05/24 01:11:33;;;;;;;3.37;2.40;;;11.40;99.90;;;;;;4377562;28;658597;-66
2022/05/24 01:14:21;;;;;;;4.87;2.50;;;11.40;99.90;;;;;;4378176;28;659350;-66
2022/05/24 01:17:08;;;;;;;4.97;2.57;;;11.30;99.90;;;;;;4403040;28;659662;-66
2022/05/24 01:19:55;;;;;;;5.53;2.80;;;11.20;99.90;;;;;;4379000;28;658693;-66
2022/05/24 01:22:52;;;;;;;4.20;2.57;;;11.30;99.90;;;;;;4401583;28;659115;-66
2022/05/24 01:25:44;;;;;;;5.13;2.70;;;11.20;99.90;;;;;;4371518;28;658562;-66
2022/05/24 01:28:36;;;;;;;6.07;2.50;;;11.10;99.90;;;;;;4375097;28;660893;-66
2022/05/24 01:31:24;;;;;;;3.93;2.47;;;11.10;99.90;;;;;;4373592;28;658711;-67
2022/05/24 01:37:16;;;;;;;5.90;2.80;;;11.00;99.90;;;;;;4372034;28;658996;-67
2022/05/24 01:40:04;;;;;;;6.37;3.17;;;11.00;99.90;;;;;;4400589;28;659242;-66
2022/05/24 01:42:51;;;;;;;9.30;3.20;;;10.90;99.90;;;;;;4372813;28;659279;-66
2022/05/24 01:45:43;;;;;;;3.97;2.77;;;10.90;99.90;;;;;;4396852;28;659215;-66
2022/05/24 01:48:32;;;;;;;3.90;2.70;;;10.90;99.90;;;;;;4350071;28;658942;-66
2022/05/24 01:51:22;;;;;;;6.93;2.93;;;10.90;99.90;;;;;;4390171;28;658982;-66
2022/05/24 01:54:09;;;;;;;8.80;2.70;;;10.80;99.90;;;;;;4397201;28;658774;-66
2022/05/24 01:56:59;;;;;;;10.70;3.20;;;10.90;99.90;;;;;;4375661;28;658792;-66
2022/05/24 01:59:48;;;;;;;5.33;2.93;;;10.90;99.90;;;;;;4375522;28;660075;-66
2022/05/24 02:02:37;;;;;;;6.77;3.10;;;10.90;99.90;;;;;;4377175;28;658744;-66
2022/05/24 02:05:31;;;;;;;6.63;3.00;;;10.90;99.90;;;;;;4394503;28;658992;-67
2022/05/24 02:08:18;;;;;;;4.43;2.93;;;10.90;99.90;;;;;;4372851;28;658756;-66
2022/05/24 02:11:06;;;;;;;3.87;2.50;;;10.90;99.90;;;;;;4377563;28;659400;-67
2022/05/24 02:13:55;;;;;;;4.13;3.10;;;10.90;99.90;;;;;;4398117;28;659465;-66
2022/05/24 02:16:44;;;;;;;6.50;3.00;;;10.90;99.90;;;;;;4373017;28;659787;-66
2022/05/24 02:19:33;;;;;;;11.07;2.70;;;10.90;99.90;;;;;;4375078;28;658517;-67
2022/05/24 02:22:22;;;;;;;4.17;2.87;;;10.80;99.90;;;;;;4375030;28;659847;-66
2022/05/24 02:25:15;;;;;;;6.20;2.90;;;10.90;99.90;;;;;;4396914;28;658830;-66
2022/05/24 02:28:03;;;;;;;9.17;3.10;;;10.80;99.90;;;;;;4351861;28;659327;-66
2022/05/24 02:30:53;;;;;;;7.53;3.30;;;10.80;99.90;;;;;;4380370;28;658680;-66
2022/05/24 02:33:40;;;;;;;5.80;2.90;;;10.80;99.90;;;;;;4375990;28;658454;-66
2022/05/24 02:36:29;;;;;;;8.33;3.23;;;10.70;99.90;;;;;;4402308;28;659483;-66
2022/05/24 02:39:16;;;;;;;8.10;3.10;;;10.70;99.90;;;;;;4378234;28;659220;-66
2022/05/24 02:42:03;;;;;;;3.63;2.77;;;10.70;99.90;;;;;;4401328;28;658716;-66
2022/05/24 02:44:50;;;;;;;8.87;3.00;;;10.70;99.90;;;;;;4378065;28;658421;-66
2022/05/24 02:47:37;;;;;;;10.87;3.00;;;10.60;99.90;;;;;;4396123;28;659132;-66
2022/05/24 02:50:26;;;;;;;6.30;3.27;;;10.60;99.90;;;;;;4395847;28;659321;-65
2022/05/24 02:53:15;;;;;;;5.33;3.30;;;10.70;99.90;;;;;;4399095;28;658729;-66
2022/05/24 02:56:02;;;;;;;5.17;3.20;;;10.60;99.90;;;;;;4376755;28;660121;-66
2022/05/24 02:58:50;;;;;;;7.33;3.07;;;10.60;99.90;;;;;;4399530;28;658966;-66
2022/05/24 03:01:37;;;;;;;6.93;3.40;;;10.60;99.90;;;;;;4401436;28;659561;-66
2022/05/24 03:04:24;;;;;;;6.07;3.33;;;10.60;99.90;;;;;;4395356;28;659322;-65
2022/05/24 03:10:18;;;;;;;6.00;3.20;;;10.50;99.90;;;;;;4375016;28;658984;-65
2022/05/24 03:16:10;;;;;;;4.33;3.00;;;10.50;99.90;;;;;;4360261;28;658815;-66
2022/05/24 03:18:57;;;;;;;6.00;2.90;;;10.60;99.90;;;;;;4400234;28;660120;-66
2022/05/24 03:21:46;;;;;;;7.33;3.40;;;10.60;99.90;;;;;;4394593;28;659463;-66
2022/05/24 03:24:33;;;;;;;9.10;3.73;;;10.70;99.90;;;;;;4398749;28;659628;-67
2022/05/24 03:27:22;;;;;;;6.93;3.33;;;10.70;99.90;;;;;;4381122;28;659214;-65
2022/05/24 03:30:10;;;;;;;6.90;3.17;;;10.80;99.90;;;;;;4401118;28;658183;-66
2022/05/24 03:32:57;;;;;;;6.03;3.83;;;10.80;99.90;;;;;;4376038;28;659460;-66
2022/05/24 03:35:44;;;;;;;5.43;3.90;;;10.70;99.90;;;;;;4399200;28;658369;-66
2022/05/24 03:38:31;;;;;;;6.53;4.20;;;10.80;99.90;;;;;;4377668;28;658965;-65
2022/05/24 03:41:19;;;;;;;4.30;3.50;;;10.80;99.90;;;;;;4398572;28;659286;-66
2022/05/24 03:44:07;;;;;;;6.43;3.40;;;10.80;99.90;;;;;;4381745;28;658976;-66
2022/05/24 03:46:55;;;;;;;5.67;3.60;;;10.80;99.90;;;;;;4396239;28;658604;-66
2022/05/24 03:49:42;;;;;;;4.83;3.50;;;10.80;99.90;;;;;;4378870;28;659715;-66
2022/05/24 03:52:29;;;;;;;5.73;3.40;;;10.80;99.90;;;;;;4395703;28;658656;-66
2022/05/24 03:55:16;;;;;;;6.95;3.40;;;10.90;99.90;;;;;;4379686;28;658713;-66
2022/05/24 03:58:04;;;;;;;6.50;3.40;;;10.90;99.90;;;;;;4396942;28;659615;-65
2022/05/24 04:00:52;;;;;;;4.37;3.40;;;10.90;99.90;;;;;;4378653;28;658992;-66
2022/05/24 04:03:39;;;;;;;4.43;3.37;;;11.00;99.90;;;;;;4395680;28;659691;-66
2022/05/24 04:06:27;;;;;;;6.17;3.50;;;11.00;99.90;;;;;;4380903;28;658492;-66
2022/05/24 04:09:14;;;;;;;6.87;3.53;;;11.00;99.90;;;;;;4399867;28;659266;-66
2022/05/24 04:12:03;;;;;;;5.83;3.87;;;11.10;99.90;;;;;;4378314;28;659053;-66
2022/05/24 04:14:50;;;;;;;4.15;3.35;;;11.20;99.90;;;;;;4384679;28;658410;-66
2022/05/24 04:17:39;;;;;;;5.47;3.60;;;11.20;99.90;;;;;;4396404;28;659577;-66
2022/05/24 04:20:27;;;;;;;4.73;3.07;;;11.40;99.90;;;;;;4377931;28;658924;-66
2022/05/24 04:23:14;;;;;;;5.70;3.23;;;11.50;99.90;;;;;;4393878;28;659193;-66
2022/05/24 04:26:03;;;;;;;5.80;3.23;;;11.70;99.90;;;;;;4381286;28;658461;-66
2022/05/24 04:28:50;;;;;;;9.67;3.63;;;11.70;99.90;;;;;;4376380;28;658296;-66
2022/05/24 04:31:37;;;;;;;6.03;3.63;;;11.80;99.90;;;;;;4399248;28;659825;-66
2022/05/24 04:34:26;;;;;;;6.20;3.67;;;11.70;99.90;;;;;;4395918;28;659094;-66
2022/05/24 04:37:13;;;;;;;4.83;3.27;;;11.70;99.90;;;;;;4378716;28;659637;-66
2022/05/24 04:40:00;;;;;;;4.63;3.23;;;11.60;99.90;;;;;;4378532;28;659200;-66
2022/05/24 04:42:46;;;;;;;4.73;3.80;;;11.60;99.90;;;;;;4398438;28;659590;-66
2022/05/24 04:45:34;;;;;;;4.13;3.10;;;11.60;99.90;;;;;;4397349;28;658580;-66
2022/05/24 04:48:21;;;;;;;7.30;3.57;;;11.60;99.90;;;;;;4380233;28;659014;-65
2022/05/24 04:51:09;;;;;;;5.83;3.57;;;11.50;99.90;;;;;;4399641;28;659208;-66
2022/05/24 04:53:58;;;;;;;7.93;3.40;;;11.60;99.90;;;;;;4376997;28;658607;-66
2022/05/24 04:56:46;;;;;;;3.70;3.30;;;11.50;99.90;;;;;;4386388;28;659607;-65
2022/05/24 04:59:33;;;;;;;5.60;3.60;;;11.60;99.90;;;;;;4398403;28;659854;-66
2022/05/24 05:02:20;;;;;;;5.80;3.57;;;11.70;99.90;;;;;;4377228;28;658226;-66
2022/05/24 05:05:08;;;;;;;6.00;3.67;;;11.60;99.90;;;;;;4401011;28;659791;-66
2022/05/24 05:07:57;;;;;;;5.17;3.40;;;11.60;99.90;;;;;;4380276;28;658467;-66
2022/05/24 05:10:44;;;;;;;9.38;4.18;;;11.70;99.90;;;;;;4399473;28;658937;-66
2022/05/24 05:13:31;;;;;;;7.17;3.60;;;11.70;99.90;;;;;;4374241;28;658764;-66
2022/05/24 05:16:18;;;;;;;6.20;3.83;;;11.70;99.90;;;;;;4396800;28;659387;-65
2022/05/24 05:19:06;;;;;;;5.00;3.67;;;11.70;99.90;;;;;;4376537;28;658694;-65
2022/05/24 05:21:53;;;;;;;6.03;4.00;;;11.70;99.90;;;;;;4400131;28;659320;-65
2022/05/24 05:24:42;;;;;;;7.33;3.77;;;11.70;99.90;;;;;;4382527;28;660533;-65
2022/05/24 05:27:29;;;;;;;5.73;3.63;;;11.60;99.90;;;;;;4394940;28;658271;-65
2022/05/24 05:33:21;;;;;;;4.47;3.90;;;12.00;99.90;;;;;;4353976;28;659356;-65
2022/05/24 05:36:09;;;;;;;5.90;4.37;;;12.20;99.90;;;;;;4399973;28;658702;-65
2022/05/24 05:38:56;;;;;;;6.87;4.07;;;12.30;99.90;;;;;;4377750;28;658616;-66
2022/05/24 05:41:45;;;;;;;6.77;3.90;;;12.30;99.90;;;;;;4398674;28;658348;-65
2022/05/24 05:44:33;;;;;;;4.95;3.58;;;12.40;99.90;;;;;;4375129;28;659607;-65
2022/05/24 05:47:20;;;;;;;9.43;3.50;;;12.60;99.90;;;;;;4389661;28;658518;-65
2022/05/24 05:50:08;;;;;;;6.13;4.00;;;12.60;99.90;;;;;;4404535;28;658963;-65
2022/05/24 05:52:56;;;;;;;6.90;3.73;;;12.60;99.90;;;;;;4380640;28;659027;-65
2022/05/24 05:55:43;;;;;;;8.20;4.07;;;12.50;99.90;;;;;;4396970;28;658913;-65
2022/05/24 05:58:32;;;;;;;5.57;3.43;;;12.70;99.90;;;;;;4380828;28;658620;-65
2022/05/24 06:01:21;;;;;;;4.33;3.30;;;12.80;99.90;;;;;;4397789;28;658361;-65
2022/05/24 06:04:08;;;;;;;4.95;3.63;;;13.00;99.90;;;;;;4374935;28;659555;-65
2022/05/24 06:06:55;;;;;;;5.87;3.33;;;13.00;99.90;;;;;;4379465;28;658491;-65
2022/05/24 06:09:43;;;;;;;12.40;3.70;;;13.00;99.90;;;;;;4397324;28;659214;-65
2022/05/24 06:12:30;;;;;;;6.23;3.60;;;13.00;99.90;;;;;;4389905;28;659910;-65
2022/05/24 06:15:19;;;;;;;5.43;3.78;;;13.00;99.90;;;;;;4399413;28;659540;-65
2022/05/24 06:18:07;;;;;;;5.60;3.43;;;13.20;99.90;;;;;;4385391;28;659268;-65
2022/05/24 06:20:55;;;;;;;8.70;3.60;;;13.20;99.90;;;;;;4395250;28;658926;-66
2022/05/24 06:23:42;;;;;;;4.87;3.60;;;13.30;99.90;;;;;;4403953;28;659128;-65
2022/05/24 06:26:30;;;;;;;6.83;3.63;;;13.60;99.90;;;;;;4400363;28;659286;-65
2022/05/24 06:29:17;;;;;;;8.27;3.30;;;13.80;99.90;;;;;;4373048;28;659643;-65
2022/05/24 06:32:08;;;;;;;6.07;3.50;;;14.00;99.90;;;;;;4402799;28;658995;-65
2022/05/24 06:34:55;;;;;;;5.50;3.33;;;14.00;99.90;;;;;;4357025;28;659250;-65
2022/05/24 06:37:42;;;;;;;6.50;3.13;;;14.20;99.90;;;;;;4399809;28;660596;-65
2022/05/24 06:40:30;;;;;;;5.63;4.13;;;14.20;99.90;;;;;;4401952;28;658662;-65
2022/05/24 06:43:17;;;;;;;6.20;3.23;;;14.30;99.90;;;;;;4404925;28;660153;-65
2022/05/24 06:46:07;;;;;;;8.87;3.33;;;14.50;99.90;;;;;;4397112;28;658553;-65
2022/05/24 06:48:56;;;;;;;5.10;3.47;;;14.70;99.90;;;;;;4397552;28;658614;-65
2022/05/24 06:51:44;;;;;;;5.10;3.17;;;14.70;99.90;;;;;;4372951;28;658918;-65
2022/05/24 06:54:31;;;;;;;7.93;3.13;;;15.00;99.90;;;;;;4377375;28;658744;-66
2022/05/24 06:57:18;;;;;;;6.70;3.20;;;15.10;99.90;;;;;;4387296;28;658688;-66
2022/05/24 07:03:13;;;;;;;3.83;2.90;;;15.00;99.90;;;;;;4369345;28;658622;-65
2022/05/24 07:06:02;;;;;;;7.63;2.90;;;14.90;99.90;;;;;;4372970;28;659277;-65
2022/05/24 07:08:49;;;;;;;8.63;3.20;;;14.90;99.90;;;;;;4398770;28;658556;-65
2022/05/24 07:11:37;;;;;;;4.00;3.20;;;14.90;99.90;;;;;;4376846;28;658677;-66
2022/05/24 07:14:24;;;;;;;4.93;3.37;;;14.90;99.90;;;;;;4398393;28;658322;-66
2022/05/24 07:17:11;;;;;;;4.83;3.60;;;14.90;99.90;;;;;;4383292;28;658754;-66
2022/05/24 07:19:58;;;;;;;11.17;3.20;;;14.90;99.90;;;;;;4398564;28;658698;-66
2022/05/24 07:22:48;;;;;;;3.97;3.33;;;15.00;99.90;;;;;;4380762;28;659551;-65
2022/05/24 07:25:35;;;;;;;5.97;3.30;;;15.00;99.90;;;;;;4388419;28;658796;-65
2022/05/24 07:28:23;;;;;;;7.47;3.60;;;14.90;99.90;;;;;;4398028;28;658427;-66
2022/05/24 07:31:11;;;;;;;4.53;3.10;;;14.80;99.90;;;;;;4377402;28;658859;-65
2022/05/24 07:33:59;;;;;;;6.97;4.10;;;14.80;99.90;;;;;;4403888;28;659006;-65
2022/05/24 07:36:46;;;;;;;4.87;3.10;;;14.80;99.90;;;;;;4379802;28;659554;-65
2022/05/24 07:39:35;;;;;;;5.43;3.57;;;14.90;99.90;;;;;;4395243;28;659529;-65
2022/05/24 07:48:31;;;;;;;6.17;3.30;;;15.10;99.90;;;;;;4347130;28;659778;-66
2022/05/24 07:51:18;;;;;;;6.47;3.37;;;15.30;99.90;;;;;;4396526;28;659734;-66
2022/05/24 07:54:05;;;;;;;12.20;3.63;;;15.20;99.90;;;;;;4380329;28;658773;-65
2022/05/24 07:56:54;;;;;;;5.77;3.40;;;15.30;99.90;;;;;;4400899;28;661348;-65
2022/05/24 07:59:43;;;;;;;7.03;3.70;;;15.30;99.90;;;;;;4376891;28;659549;-65
2022/05/24 08:02:30;;;;;;;5.07;3.40;;;15.30;99.90;;;;;;4378695;28;659027;-66
2022/05/24 08:05:18;;;;;;;8.73;4.20;;;15.40;99.90;;;;;;4401100;28;659623;-66
2022/05/24 08:08:06;;;;;;;10.50;3.95;;;15.60;99.90;;;;;;4388083;28;659034;-65
2022/05/24 08:10:53;;;;;;;6.30;3.33;;;15.70;99.90;;;;;;4399487;28;660130;-65
2022/05/24 08:13:42;;;;;;;7.60;3.97;;;15.60;99.90;;;;;;4385668;28;659161;-65
2022/05/24 08:16:29;;;;;;;8.03;3.30;;;15.70;99.90;;;;;;4403687;28;658354;-66
2022/05/24 08:19:17;;;;;;;6.23;3.37;;;15.90;99.90;;;;;;4372371;28;658836;-65
2022/05/24 08:22:05;;;;;;;5.03;3.63;;;15.90;99.90;;;;;;4412313;28;658423;-65
2022/05/24 08:24:52;;;;;;;5.80;3.67;;;15.90;99.90;;;;;;4381692;28;659725;-65
2022/05/24 08:27:39;;;;;;;6.33;3.37;;;16.20;99.90;;;;;;4400350;28;658360;-66
2022/05/24 08:30:28;;;;;;;7.67;3.20;;;16.40;99.90;;;;;;4381876;28;658686;-66
2022/05/24 08:33:16;;;;;;;7.23;3.60;;;16.70;99.90;;;;;;4384487;28;659079;-66
2022/05/24 08:36:03;;;;;;;5.83;3.63;;;16.70;99.90;;;;;;4409008;28;659665;-66
2022/05/24 08:38:50;;;;;;;8.73;3.43;;;16.80;99.90;;;;;;4384587;28;659114;-66
2022/05/24 08:41:49;;;;;;;11.27;3.53;;;16.80;99.90;;;;;;4400984;28;659659;-65
2022/05/24 08:51:08;;;;;;;6.60;4.20;;;16.80;99.90;;;;;;4300081;28;658532;-65
2022/05/24 08:53:56;;;;;;;8.27;3.70;;;16.90;99.90;;;;;;4374144;28;658289;-65
2022/05/24 08:56:46;;;;;;;16.07;3.80;;;16.80;99.90;;;;;;4403169;28;660592;-65
2022/05/24 08:59:35;;;;;;;11.53;3.43;;;16.70;99.90;;;;;;4379808;28;660149;-66
2022/05/24 09:02:22;;;;;;;6.77;3.53;;;16.60;99.90;;;;;;4381575;28;660846;-65
2022/05/24 09:05:13;;;;;;;6.57;3.67;;;16.60;99.90;;;;;;4402912;28;658660;-65
2022/05/24 09:08:08;;;;;;;9.13;3.83;;;16.70;99.90;;;;;;4359391;28;659118;-66
2022/05/24 09:11:01;;;;;;;9.43;3.73;;;16.90;99.90;;;;;;4362360;28;658585;-66
2022/05/24 09:14:00;;;;;;;9.20;3.70;;;17.10;99.90;;;;;;4377861;28;659104;-66
2022/05/24 09:16:52;;;;;;;6.43;3.47;;;17.10;99.90;;;;;;4380515;28;659036;-66
2022/05/24 09:19:40;;;;;;;7.10;3.97;;;17.00;99.90;;;;;;4383742;28;658117;-65
2022/05/24 09:22:34;;;;;;;6.77;3.50;;;17.10;99.90;;;;;;4367746;28;659612;-66
2022/05/24 09:25:21;;;;;;;5.97;3.20;;;17.00;99.90;;;;;;4379615;28;658602;-66
2022/05/24 09:28:08;;;;;;;6.33;3.70;;;17.00;99.90;;;;;;4387333;28;658128;-66
2022/05/24 09:30:55;;;;;;;6.80;3.97;;;17.00;99.90;;;;;;4389446;28;658739;-66
2022/05/24 09:33:44;;;;;;;7.73;3.77;;;16.90;99.90;;;;;;4407526;28;660098;-66
2022/05/24 09:36:39;;;;;;;9.43;4.00;;;16.50;99.90;;;;;;4378189;28;659068;-66
2022/05/24 09:39:30;;;;;;;9.40;4.00;;;16.80;99.90;;;;;;4357696;28;658768;-66
2022/05/24 09:42:27;;;;;;;10.63;4.10;;;16.70;99.90;;;;;;4376803;28;660210;-66
2022/05/24 09:45:15;;;;;;;13.53;4.33;;;16.50;99.90;;;;;;4375268;28;660825;-66
2022/05/24 09:48:02;;;;;;;14.33;4.67;;;16.40;99.90;;;;;;4376627;28;660833;-66
2022/05/24 09:50:51;;;;;;;9.70;4.07;;;16.40;99.90;;;;;;4396385;28;660448;-66
2022/05/24 09:53:47;;;;;;;8.77;4.20;;;16.40;99.90;;;;;;4400389;28;658375;-66
2022/05/24 09:56:36;;;;;;;13.57;4.30;;;16.70;99.90;;;;;;4380590;28;658759;-66
2022/05/24 09:59:24;;;;;;;7.17;4.00;;;16.80;99.90;;;;;;4370342;28;660524;-67
2022/05/24 10:02:23;;;;;;;12.43;4.60;;;17.10;99.90;;;;;;4375075;28;658936;-66
2022/05/24 10:05:18;;;;;;;9.40;4.20;;;17.40;99.90;;;;;;4356261;28;659904;-66
2022/05/24 10:08:12;;;;;;;8.13;4.10;;;17.60;99.90;;;;;;4368636;28;658511;-66
2022/05/24 10:10:59;;;;;;;8.07;3.63;;;17.70;99.90;;;;;;4377940;28;658942;-66
2022/05/24 10:13:51;;;;;;;7.70;4.10;;;17.60;99.90;;;;;;4377275;28;658425;-67
2022/05/24 10:16:41;;;;;;;6.83;3.67;;;17.30;99.90;;;;;;4366903;28;659493;-66
2022/05/24 10:19:41;;;;;;;5.77;3.77;;;17.20;99.90;;;;;;4355119;28;659901;-66
2022/05/24 10:22:34;;;;;;;8.33;4.07;;;17.40;99.90;;;;;;4371992;28;659463;-66
2022/05/24 10:25:24;;;;;;;9.35;4.03;;;17.60;99.90;;;;;;4354439;28;659259;-66
2022/05/24 10:28:20;;;;;;;13.10;4.67;;;17.40;99.90;;;;;;4381649;28;659014;-66
2022/05/24 10:31:12;;;;;;;8.67;4.23;;;17.40;99.90;;;;;;4349090;28;660297;-66
2022/05/24 10:40:23;;;;;;;13.87;3.90;;;17.10;99.90;;;;;;4375419;28;660487;-65
2022/05/24 10:43:21;;;;;;;10.37;4.10;;;17.00;99.90;;;;;;4352540;28;659386;-66
2022/05/24 10:46:11;;;;;;;12.23;4.17;;;17.00;99.90;;;;;;4377980;28;660559;-67
2022/05/24 10:49:03;;;;;;;12.27;4.70;;;17.00;99.90;;;;;;4371063;28;659742;-66
2022/05/24 10:51:53;;;;;;;10.03;4.23;;;16.80;99.90;;;;;;4349020;28;659920;-67
2022/05/24 10:54:44;;;;;;;9.73;4.23;;;16.80;99.90;;;;;;4375281;28;659711;-66
2022/05/24 10:57:32;;;;;;;11.73;4.77;;;16.80;99.90;;;;;;4386558;28;658877;-67
2022/05/24 11:00:22;;;;;;;10.43;4.53;;;16.90;99.90;;;;;;4393844;28;659197;-66
2022/05/24 11:03:16;;;;;;;10.23;4.30;;;16.70;99.90;;;;;;4375477;28;659817;-67
2022/05/24 11:06:05;;;;;;;13.80;4.30;;;16.70;99.90;;;;;;4371428;28;660521;-67
2022/05/24 11:08:55;;;;;;;10.03;4.87;;;16.80;99.90;;;;;;4377879;28;661614;-67
2022/05/24 11:11:44;;;;;;;9.27;4.70;;;16.90;99.90;;;;;;4370614;28;661446;-67
2022/05/24 11:14:34;;;;;;;13.37;4.70;;;17.00;99.90;;;;;;4382328;28;658532;-66
2022/05/24 11:17:22;;;;;;;20.90;6.33;;;17.10;99.90;;;;;;4375214;28;660013;-66
2022/05/24 11:20:12;;;;;;;16.60;6.47;;;17.10;99.90;;;;;;4391926;28;659595;-66
2022/05/24 11:23:04;;;;;;;19.57;6.90;;;17.20;99.90;;;;;;4398905;28;659833;-66
2022/05/24 11:25:52;;;;;;;15.33;6.73;;;17.20;99.90;;;;;;4385766;28;659511;-66
2022/05/24 11:28:43;;;;;;;15.23;7.80;;;17.30;99.90;;;;;;4397341;28;660741;-66
2022/05/24 11:31:36;;;;;;;17.50;7.77;;;17.00;99.90;;;;;;4387064;28;659881;-67
2022/05/24 11:34:26;;;;;;;16.50;7.20;;;16.90;99.90;;;;;;4383552;28;660069;-67
2022/05/24 11:37:22;;;;;;;14.73;6.33;;;16.60;99.90;;;;;;4384187;28;660438;-65
2022/05/24 11:40:32;;;;;;;10.77;6.17;;;16.60;99.90;;;;;;4383204;28;660321;-66
2022/05/24 11:43:53;;;;;;;15.77;6.23;;;16.70;99.90;;;;;;4376869;28;660996;-66
2022/05/24 11:46:44;;;;;;;10.50;5.83;;;16.60;99.90;;;;;;4367019;28;659931;-66
2022/05/24 11:50:07;;;;;;;13.70;6.00;;;16.50;99.90;;;;;;4378456;28;660805;-66
2022/05/24 11:53:05;;;;;;;11.20;5.60;;;16.80;99.90;;;;;;4378851;28;660180;-66
2022/05/24 11:56:17;;;;;;;12.97;5.90;;;16.50;99.90;;;;;;4356290;28;661168;-66
2022/05/24 11:59:05;;;;;;;9.87;5.87;;;16.90;99.90;;;;;;4382201;28;660090;-67
2022/05/24 12:01:52;;;;;;;16.13;6.50;;;17.00;99.90;;;;;;4383060;28;659950;-66
2022/05/24 12:08:26;;;;;;;10.07;5.77;;;17.50;99.90;;;;;;4351085;28;659836;-67
2022/05/24 12:11:32;;;;;;;10.27;6.07;;;17.20;99.90;;;;;;4346238;28;660435;-66
2022/05/24 12:14:35;;;;;;;11.90;6.30;;;17.60;99.90;;;;;;4366402;28;660930;-66
2022/05/24 12:17:26;;;;;;;12.83;6.13;;;17.40;99.90;;;;;;4354614;28;660067;-66
2022/05/24 12:20:31;;;;;;;13.43;6.07;;;17.50;99.90;;;;;;4374927;28;660664;-66
2022/05/24 12:23:19;;;;;;;11.73;5.60;;;17.40;99.90;;;;;;4383550;28;659987;-66
2022/05/24 12:26:08;;;;;;;12.50;6.33;;;17.50;99.90;;;;;;4381570;28;659627;-67
2022/05/24 12:28:55;;;;;;;15.10;6.90;;;17.70;99.90;;;;;;4385214;28;660027;-66
2022/05/24 12:31:43;;;;;;;17.33;6.93;;;18.70;99.90;;;;;;4398211;28;661074;-66
2022/05/24 12:34:31;;;;;;;11.53;6.20;;;19.90;99.90;;;;;;4393591;28;659975;-67
2022/05/24 12:37:23;;;;;;;9.40;4.70;;;20.90;99.90;;;;;;4401361;28;659706;-67
2022/05/24 12:40:17;;;;;;;10.07;4.87;;;21.30;99.90;;;;;;4365916;28;658771;-67
2022/05/24 12:43:08;;;;;;;7.43;4.80;;;22.20;99.60;;;;;;4382069;28;659905;-67
2022/05/24 12:45:56;;;;;;;12.40;4.57;;;22.70;95.10;;;;;;4361473;28;658533;-66
2022/05/24 12:48:43;;;;;;;11.23;4.70;;;21.30;94.00;;;;;;4400788;28;660234;-66
2022/05/24 12:51:30;;;;;;;55.13;38.73;;;21.70;98.00;;;;;;4388205;28;660018;-66
2022/05/24 12:54:20;;;;;;;10.40;4.60;;;21.60;99.90;;;;;;4399548;28;662366;-66
2022/05/24 12:57:14;;;;;;;33.77;24.67;;;21.20;90.50;;;;;;4386101;28;660235;-66
2022/05/24 13:00:08;;;;;;;9.33;4.93;;;21.40;94.80;;;;;;4357255;28;661766;-66
2022/05/24 13:02:55;;;;;;;7.60;4.40;;;22.00;91.30;;;;;;4375026;28;658890;-66
2022/05/24 13:05:42;;;;;;;16.60;9.23;;;22.30;87.00;;;;;;4400680;28;660096;-66
2022/05/24 13:08:30;;;;;;;11.50;5.40;;;22.30;89.90;;;;;;4401101;28;660188;-66
2022/05/24 13:11:18;;;;;;;8.53;4.10;;;22.60;86.80;;;;;;4403825;28;660432;-67
2022/05/24 13:14:06;;;;;;;13.35;5.45;;;24.30;77.70;;;;;;4395491;28;658556;-66
2022/05/24 13:16:54;;;;;;;12.73;4.53;;;23.40;90.60;;;;;;4406465;28;660501;-66
2022/05/24 13:19:46;;;;;;;17.23;10.73;;;23.60;77.80;;;;;;4380915;28;660192;-66
2022/05/24 13:22:45;;;;;;;8.52;3.60;;;23.30;77.40;;;;;;4379551;28;662153;-66
2022/05/24 13:25:45;;;;;;;7.63;3.67;;;22.50;86.10;;;;;;4350452;28;659383;-66
2022/05/24 13:28:37;;;;;;;8.20;4.00;;;22.60;89.50;;;;;;4357853;28;660123;-66
2022/05/24 13:34:33;;;;;;;16.58;9.10;;;22.80;81.70;;;;;;4377156;28;659513;-66
2022/05/24 13:37:20;;;;;;;8.63;3.80;;;23.00;76.80;;;;;;4391492;28;659893;-66
2022/05/24 13:40:08;;;;;;;10.15;4.47;;;22.10;79.50;;;;;;4402065;28;660347;-66
2022/05/24 13:42:57;;;;;;;8.38;3.47;;;23.60;82.00;;;;;;4381645;28;659979;-67
2022/05/24 13:45:44;;;;;;;6.40;4.03;;;24.90;75.10;;;;;;4399622;28;659421;-66
2022/05/24 13:48:32;;;;;;;9.90;7.15;;;24.50;74.50;;;;;;4370894;28;658550;-67
2022/05/24 13:51:25;;;;;;;7.38;3.63;;;24.20;71.90;;;;;;4398215;28;658892;-66
2022/05/24 13:54:31;;;;;;;7.53;3.25;;;24.40;74.60;;;;;;4357538;28;659826;-66
2022/05/24 13:57:23;;;;;;;6.30;3.38;;;23.70;75.50;;;;;;4371401;28;660235;-66
2022/05/24 14:00:13;;;;;;;5.78;3.50;;;22.20;79.90;;;;;;4361228;28;659298;-66
2022/05/24 14:03:15;;;;;;;8.75;3.20;;;21.90;86.70;;;;;;4385466;28;658572;-66
2022/05/24 14:06:05;;;;;;;7.18;3.30;;;21.90;85.90;;;;;;4348156;28;659958;-66
2022/05/24 14:08:55;;;;;;;5.35;3.13;;;22.20;84.40;;;;;;4366806;28;659790;-66
2022/05/24 14:11:48;;;;;;;7.43;2.92;;;22.80;77.30;;;;;;4379826;28;659876;-66
2022/05/24 14:14:36;;;;;;;8.18;3.30;;;22.60;80.60;;;;;;4360840;28;659298;-67
2022/05/24 14:17:24;;;;;;;5.50;3.57;;;22.70;80.90;;;;;;4403522;28;659664;-66
2022/05/24 14:20:11;;;;;;;9.60;3.80;;;21.90;83.90;;;;;;4380360;28;658430;-66
2022/05/24 14:22:58;;;;;;;11.60;7.00;;;21.30;90.00;;;;;;4407181;28;659391;-66
2022/05/24 14:25:47;;;;;;;8.03;3.73;;;21.10;91.70;;;;;;4381403;28;659733;-66
2022/05/24 14:28:34;;;;;;;8.82;3.55;;;21.00;92.70;;;;;;4416420;28;659509;-67
2022/05/24 14:31:23;;;;;;;12.93;3.57;;;20.70;94.50;;;;;;4385032;28;659960;-67
2022/05/24 14:34:11;;;;;;;10.70;3.90;;;20.90;92.20;;;;;;4380271;28;659672;-67
2022/05/24 14:36:58;;;;;;;6.73;3.40;;;21.10;91.80;;;;;;4394276;28;662111;-66
2022/05/24 14:39:45;;;;;;;7.80;3.97;;;20.50;92.50;;;;;;4379738;28;658842;-66
2022/05/24 14:42:34;;;;;;;5.13;3.57;;;20.30;94.10;;;;;;4402642;28;660156;-66
2022/05/24 14:45:21;;;;;;;8.57;4.20;;;20.10;95.80;;;;;;4377396;28;658990;-66
2022/05/24 14:48:09;;;;;;;22.47;11.10;;;20.10;95.10;;;;;;4400741;28;659209;-67
2022/05/24 14:50:56;;;;;;;21.83;11.97;;;20.20;95.40;;;;;;4381920;28;661518;-66
2022/05/24 14:53:43;;;;;;;15.97;7.07;;;20.30;98.10;;;;;;4391607;28;662108;-67
2022/05/24 14:56:30;;;;;;;12.03;5.50;;;20.70;96.70;;;;;;4381379;28;659434;-67
2022/05/24 14:59:19;;;;;;;10.57;6.37;;;21.20;93.50;;;;;;4404522;28;661127;-67
2022/05/24 15:02:07;;;;;;;10.10;4.07;;;21.70;93.40;;;;;;4381903;28;660181;-67
2022/05/24 15:04:54;;;;;;;7.97;4.13;;;22.50;81.70;;;;;;4395377;28;660017;-67
2022/05/24 15:16:59;;;;;;;121.07;73.03;;;23.00;77.30;;;;;;4352357;28;661801;-66